Fredericksburg, Virginia
Current Conditions -  °F | °C
As of 12:15 PM on Wednesday 26 Nov 2014 (Local Time) from KEZF Reporting Station
Moderate Rain Moderate Rain  
Wind Chill:   Ceiling: 600
Heat Index:   Visibility: 7mi
Dew Point:   Wind: 9mph
Humidity: 100%   Direction: 360°N
Pressure: 29.95"   Gusts: NA
Location:  38.3°N, 77.46°W
Report Text: KEZF 261715Z AUTO 36008KT 7SM RA BKN006 OVC010 03/03 A2995 RMK AO2 T00330033
Loading
Personal Weather Stations






























Interactive Weather Map New forecast layout! Learn more

10-Day Weather Forecast

Advertisements
Track Severe Weather on mobile